sensor_id;sensor_type;location;lat;lon;timestamp;P1;durP1;ratioP1;P2;durP2;ratioP2
66575;SDS011;53428;47.686;16.584;2023-05-07T00:04:09;14.00;;;9.43;;
66575;SDS011;53428;47.686;16.584;2023-05-07T00:09:09;12.13;;;8.38;;
66575;SDS011;53428;47.686;16.584;2023-05-07T00:14:09;12.63;;;9.15;;
66575;SDS011;53428;47.686;16.584;2023-05-07T00:19:08;11.45;;;8.35;;
66575;SDS011;53428;47.686;16.584;2023-05-07T00:24:08;12.02;;;8.55;;
66575;SDS011;53428;47.686;16.584;2023-05-07T00:29:07;15.45;;;8.40;;
66575;SDS011;53428;47.686;16.584;2023-05-07T00:34:07;12.80;;;9.13;;
66575;SDS011;53428;47.686;16.584;2023-05-07T00:39:06;13.48;;;9.60;;
66575;SDS011;53428;47.686;16.584;2023-05-07T00:44:06;15.63;;;9.07;;
66575;SDS011;53428;47.686;16.584;2023-05-07T00:49:05;12.63;;;8.93;;
66575;SDS011;53428;47.686;16.584;2023-05-07T00:54:05;13.32;;;8.77;;
66575;SDS011;53428;47.686;16.584;2023-05-07T00:59:05;12.88;;;8.50;;
66575;SDS011;53428;47.686;16.584;2023-05-07T01:04:05;11.07;;;8.30;;
66575;SDS011;53428;47.686;16.584;2023-05-07T01:09:04;11.52;;;7.72;;
66575;SDS011;53428;47.686;16.584;2023-05-07T01:14:04;11.45;;;8.23;;
66575;SDS011;53428;47.686;16.584;2023-05-07T01:19:04;11.32;;;7.05;;
66575;SDS011;53428;47.686;16.584;2023-05-07T01:24:04;12.18;;;8.23;;
66575;SDS011;53428;47.686;16.584;2023-05-07T01:29:04;11.45;;;8.73;;
66575;SDS011;53428;47.686;16.584;2023-05-07T01:34:03;14.27;;;9.90;;
66575;SDS011;53428;47.686;16.584;2023-05-07T01:39:06;14.52;;;9.60;;
66575;SDS011;53428;47.686;16.584;2023-05-07T01:44:05;16.85;;;10.25;;
66575;SDS011;53428;47.686;16.584;2023-05-07T01:49:05;19.20;;;10.75;;
66575;SDS011;53428;47.686;16.584;2023-05-07T01:54:05;14.05;;;7.93;;
66575;SDS011;53428;47.686;16.584;2023-05-07T01:59:05;11.50;;;8.60;;
66575;SDS011;53428;47.686;16.584;2023-05-07T02:04:05;13.15;;;8.75;;
66575;SDS011;53428;47.686;16.584;2023-05-07T02:09:04;12.55;;;8.70;;
66575;SDS011;53428;47.686;16.584;2023-05-07T02:14:04;11.90;;;9.10;;
66575;SDS011;53428;47.686;16.584;2023-05-07T02:19:03;13.32;;;8.88;;
66575;SDS011;53428;47.686;16.584;2023-05-07T02:24:03;10.50;;;7.88;;
66575;SDS011;53428;47.686;16.584;2023-05-07T02:29:02;12.63;;;8.43;;
66575;SDS011;53428;47.686;16.584;2023-05-07T02:34:02;11.48;;;8.60;;
66575;SDS011;53428;47.686;16.584;2023-05-07T02:39:01;14.50;;;11.23;;
66575;SDS011;53428;47.686;16.584;2023-05-07T02:44:01;15.63;;;9.25;;
66575;SDS011;53428;47.686;16.584;2023-05-07T02:49:01;12.15;;;8.18;;
66575;SDS011;53428;47.686;16.584;2023-05-07T02:54:00;10.30;;;7.50;;
66575;SDS011;53428;47.686;16.584;2023-05-07T02:59:00;12.38;;;7.53;;
66575;SDS011;53428;47.686;16.584;2023-05-07T03:03:59;12.27;;;7.80;;
66575;SDS011;53428;47.686;16.584;2023-05-07T03:08:59;14.00;;;9.85;;
66575;SDS011;53428;47.686;16.584;2023-05-07T03:13:58;14.80;;;10.18;;
66575;SDS011;53428;47.686;16.584;2023-05-07T03:18:58;12.90;;;9.40;;
66575;SDS011;53428;47.686;16.584;2023-05-07T03:23:57;18.20;;;8.30;;
66575;SDS011;53428;47.686;16.584;2023-05-07T03:28:57;14.02;;;7.82;;
66575;SDS011;53428;47.686;16.584;2023-05-07T03:33:56;9.30;;;6.82;;
66575;SDS011;53428;47.686;16.584;2023-05-07T03:38:56;11.05;;;6.18;;
66575;SDS011;53428;47.686;16.584;2023-05-07T03:43:56;12.18;;;7.47;;
66575;SDS011;53428;47.686;16.584;2023-05-07T03:48:55;12.35;;;7.05;;
66575;SDS011;53428;47.686;16.584;2023-05-07T03:53:55;14.90;;;6.85;;
66575;SDS011;53428;47.686;16.584;2023-05-07T03:58:56;9.38;;;6.15;;
66575;SDS011;53428;47.686;16.584;2023-05-07T04:03:55;13.00;;;7.70;;
66575;SDS011;53428;47.686;16.584;2023-05-07T04:08:54;8.05;;;6.53;;
66575;SDS011;53428;47.686;16.584;2023-05-07T04:13:54;9.07;;;7.00;;
66575;SDS011;53428;47.686;16.584;2023-05-07T04:18:53;11.65;;;7.07;;
66575;SDS011;53428;47.686;16.584;2023-05-07T04:23:53;12.18;;;7.45;;
66575;SDS011;53428;47.686;16.584;2023-05-07T04:28:52;8.15;;;6.43;;
66575;SDS011;53428;47.686;16.584;2023-05-07T04:33:52;11.95;;;7.35;;
66575;SDS011;53428;47.686;16.584;2023-05-07T04:38:51;9.85;;;5.57;;
66575;SDS011;53428;47.686;16.584;2023-05-07T04:43:51;12.63;;;5.38;;
66575;SDS011;53428;47.686;16.584;2023-05-07T04:48:50;7.28;;;5.10;;
66575;SDS011;53428;47.686;16.584;2023-05-07T04:53:50;6.57;;;5.10;;
66575;SDS011;53428;47.686;16.584;2023-05-07T04:58:49;8.77;;;6.03;;
66575;SDS011;53428;47.686;16.584;2023-05-07T05:03:48;6.45;;;5.13;;
66575;SDS011;53428;47.686;16.584;2023-05-07T05:08:48;8.98;;;5.10;;
66575;SDS011;53428;47.686;16.584;2023-05-07T05:13:47;6.80;;;5.63;;
66575;SDS011;53428;47.686;16.584;2023-05-07T05:18:48;6.45;;;5.10;;
66575;SDS011;53428;47.686;16.584;2023-05-07T05:23:47;8.15;;;6.25;;
66575;SDS011;53428;47.686;16.584;2023-05-07T05:28:47;6.65;;;4.63;;
66575;SDS011;53428;47.686;16.584;2023-05-07T05:33:46;7.13;;;4.38;;
66575;SDS011;53428;47.686;16.584;2023-05-07T05:38:45;8.40;;;4.65;;
66575;SDS011;53428;47.686;16.584;2023-05-07T05:43:45;7.30;;;5.35;;
66575;SDS011;53428;47.686;16.584;2023-05-07T05:48:46;7.00;;;5.05;;
66575;SDS011;53428;47.686;16.584;2023-05-07T05:53:45;14.55;;;5.95;;
66575;SDS011;53428;47.686;16.584;2023-05-07T05:58:45;10.40;;;6.43;;
66575;SDS011;53428;47.686;16.584;2023-05-07T06:03:45;7.97;;;6.38;;
66575;SDS011;53428;47.686;16.584;2023-05-07T06:08:44;11.65;;;6.68;;
66575;SDS011;53428;47.686;16.584;2023-05-07T06:13:44;10.82;;;7.55;;
66575;SDS011;53428;47.686;16.584;2023-05-07T06:18:43;9.05;;;7.35;;
66575;SDS011;53428;47.686;16.584;2023-05-07T06:23:45;16.88;;;10.32;;
66575;SDS011;53428;47.686;16.584;2023-05-07T06:28:44;18.63;;;12.75;;
66575;SDS011;53428;47.686;16.584;2023-05-07T06:33:44;18.90;;;12.10;;
66575;SDS011;53428;47.686;16.584;2023-05-07T06:38:44;20.75;;;11.93;;
66575;SDS011;53428;47.686;16.584;2023-05-07T06:43:43;21.33;;;11.75;;
66575;SDS011;53428;47.686;16.584;2023-05-07T06:48:43;18.23;;;12.60;;
66575;SDS011;53428;47.686;16.584;2023-05-07T06:53:42;17.00;;;11.13;;
66575;SDS011;53428;47.686;16.584;2023-05-07T06:58:41;19.00;;;12.63;;
66575;SDS011;53428;47.686;16.584;2023-05-07T07:03:41;19.15;;;12.25;;
66575;SDS011;53428;47.686;16.584;2023-05-07T07:08:40;21.33;;;13.20;;
66575;SDS011;53428;47.686;16.584;2023-05-07T07:13:40;19.63;;;13.52;;
66575;SDS011;53428;47.686;16.584;2023-05-07T07:18:39;22.83;;;13.13;;
66575;SDS011;53428;47.686;16.584;2023-05-07T07:23:38;21.30;;;14.13;;
66575;SDS011;53428;47.686;16.584;2023-05-07T07:28:47;21.85;;;14.52;;
66575;SDS011;53428;47.686;16.584;2023-05-07T07:33:46;26.33;;;16.25;;
66575;SDS011;53428;47.686;16.584;2023-05-07T07:38:46;24.70;;;16.45;;
66575;SDS011;53428;47.686;16.584;2023-05-07T07:43:45;27.13;;;15.40;;
66575;SDS011;53428;47.686;16.584;2023-05-07T07:48:45;23.95;;;15.15;;
66575;SDS011;53428;47.686;16.584;2023-05-07T07:53:45;28.13;;;16.40;;
66575;SDS011;53428;47.686;16.584;2023-05-07T07:58:44;26.95;;;16.33;;
66575;SDS011;53428;47.686;16.584;2023-05-07T08:03:44;27.25;;;15.82;;
66575;SDS011;53428;47.686;16.584;2023-05-07T08:08:43;27.88;;;17.52;;
66575;SDS011;53428;47.686;16.584;2023-05-07T08:13:42;26.33;;;17.08;;
66575;SDS011;53428;47.686;16.584;2023-05-07T08:18:42;25.00;;;15.95;;
66575;SDS011;53428;47.686;16.584;2023-05-07T08:23:41;19.98;;;14.88;;
66575;SDS011;53428;47.686;16.584;2023-05-07T08:28:41;21.25;;;15.45;;
66575;SDS011;53428;47.686;16.584;2023-05-07T08:33:40;20.55;;;14.07;;
66575;SDS011;53428;47.686;16.584;2023-05-07T08:38:39;20.55;;;13.98;;
66575;SDS011;53428;47.686;16.584;2023-05-07T08:43:41;19.65;;;13.80;;
66575;SDS011;53428;47.686;16.584;2023-05-07T08:48:42;18.80;;;12.98;;
66575;SDS011;53428;47.686;16.584;2023-05-07T08:53:42;22.38;;;13.57;;
66575;SDS011;53428;47.686;16.584;2023-05-07T08:58:42;19.33;;;14.73;;
66575;SDS011;53428;47.686;16.584;2023-05-07T09:03:44;23.92;;;15.13;;
66575;SDS011;53428;47.686;16.584;2023-05-07T09:08:48;20.00;;;14.52;;
66575;SDS011;53428;47.686;16.584;2023-05-07T09:13:55;23.33;;;13.73;;
66575;SDS011;53428;47.686;16.584;2023-05-07T09:18:57;24.52;;;14.02;;
66575;SDS011;53428;47.686;16.584;2023-05-07T09:23:57;16.30;;;12.95;;
66575;SDS011;53428;47.686;16.584;2023-05-07T09:28:56;19.55;;;13.52;;
66575;SDS011;53428;47.686;16.584;2023-05-07T09:33:56;15.23;;;9.48;;
66575;SDS011;53428;47.686;16.584;2023-05-07T09:38:56;14.93;;;10.13;;
66575;SDS011;53428;47.686;16.584;2023-05-07T09:43:58;17.77;;;9.63;;
66575;SDS011;53428;47.686;16.584;2023-05-07T09:48:59;16.27;;;9.43;;
66575;SDS011;53428;47.686;16.584;2023-05-07T09:54:01;12.70;;;9.57;;
66575;SDS011;53428;47.686;16.584;2023-05-07T09:59:02;12.07;;;7.97;;
66575;SDS011;53428;47.686;16.584;2023-05-07T10:04:02;12.93;;;9.48;;
66575;SDS011;53428;47.686;16.584;2023-05-07T10:09:07;10.73;;;7.45;;
66575;SDS011;53428;47.686;16.584;2023-05-07T10:14:07;10.55;;;8.07;;
66575;SDS011;53428;47.686;16.584;2023-05-07T10:19:07;14.82;;;8.70;;
66575;SDS011;53428;47.686;16.584;2023-05-07T10:24:19;16.90;;;9.25;;
66575;SDS011;53428;47.686;16.584;2023-05-07T10:29:29;11.10;;;7.03;;
66575;SDS011;53428;47.686;16.584;2023-05-07T10:34:37;9.98;;;7.10;;
66575;SDS011;53428;47.686;16.584;2023-05-07T10:39:40;11.00;;;7.78;;
66575;SDS011;53428;47.686;16.584;2023-05-07T10:44:40;12.23;;;8.68;;
66575;SDS011;53428;47.686;16.584;2023-05-07T10:54:45;15.50;;;9.95;;
66575;SDS011;53428;47.686;16.584;2023-05-07T10:59:45;11.20;;;8.50;;
66575;SDS011;53428;47.686;16.584;2023-05-07T11:04:44;15.98;;;8.15;;
66575;SDS011;53428;47.686;16.584;2023-05-07T11:14:52;9.32;;;6.85;;
66575;SDS011;53428;47.686;16.584;2023-05-07T11:19:53;10.15;;;8.10;;
66575;SDS011;53428;47.686;16.584;2023-05-07T11:24:54;11.57;;;8.32;;
66575;SDS011;53428;47.686;16.584;2023-05-07T11:29:53;10.55;;;7.32;;
66575;SDS011;53428;47.686;16.584;2023-05-07T11:34:56;8.18;;;6.30;;
66575;SDS011;53428;47.686;16.584;2023-05-07T11:40:06;10.20;;;7.78;;
66575;SDS011;53428;47.686;16.584;2023-05-07T11:45:08;9.50;;;7.57;;
66575;SDS011;53428;47.686;16.584;2023-05-07T11:50:07;11.80;;;7.88;;
66575;SDS011;53428;47.686;16.584;2023-05-07T11:55:09;8.95;;;6.68;;
66575;SDS011;53428;47.686;16.584;2023-05-07T12:00:08;10.85;;;8.05;;
66575;SDS011;53428;47.686;16.584;2023-05-07T12:05:08;7.55;;;6.05;;
66575;SDS011;53428;47.686;16.584;2023-05-07T12:10:07;7.95;;;5.75;;
66575;SDS011;53428;47.686;16.584;2023-05-07T12:15:07;11.55;;;7.55;;
66575;SDS011;53428;47.686;16.584;2023-05-07T12:20:07;8.27;;;6.53;;
66575;SDS011;53428;47.686;16.584;2023-05-07T12:25:07;10.98;;;7.07;;
66575;SDS011;53428;47.686;16.584;2023-05-07T12:30:09;12.82;;;7.25;;
66575;SDS011;53428;47.686;16.584;2023-05-07T12:35:09;9.40;;;7.18;;
66575;SDS011;53428;47.686;16.584;2023-05-07T12:40:09;11.10;;;7.70;;
66575;SDS011;53428;47.686;16.584;2023-05-07T12:45:14;9.05;;;6.55;;
66575;SDS011;53428;47.686;16.584;2023-05-07T12:50:15;10.65;;;7.97;;
66575;SDS011;53428;47.686;16.584;2023-05-07T12:55:15;11.98;;;8.50;;
66575;SDS011;53428;47.686;16.584;2023-05-07T13:00:16;7.07;;;6.07;;
66575;SDS011;53428;47.686;16.584;2023-05-07T13:05:15;11.10;;;6.57;;
66575;SDS011;53428;47.686;16.584;2023-05-07T13:10:14;8.73;;;6.68;;
66575;SDS011;53428;47.686;16.584;2023-05-07T13:15:14;12.25;;;7.07;;
66575;SDS011;53428;47.686;16.584;2023-05-07T13:20:13;10.95;;;8.77;;
66575;SDS011;53428;47.686;16.584;2023-05-07T13:25:12;8.02;;;6.32;;
66575;SDS011;53428;47.686;16.584;2023-05-07T13:30:11;11.85;;;6.70;;
66575;SDS011;53428;47.686;16.584;2023-05-07T13:35:11;9.10;;;6.53;;
66575;SDS011;53428;47.686;16.584;2023-05-07T13:40:10;8.75;;;6.57;;
66575;SDS011;53428;47.686;16.584;2023-05-07T13:45:10;10.82;;;6.65;;
66575;SDS011;53428;47.686;16.584;2023-05-07T13:50:09;8.98;;;5.65;;
66575;SDS011;53428;47.686;16.584;2023-05-07T13:55:10;13.93;;;6.13;;
66575;SDS011;53428;47.686;16.584;2023-05-07T14:00:09;13.23;;;6.18;;
66575;SDS011;53428;47.686;16.584;2023-05-07T14:05:09;9.60;;;6.35;;
66575;SDS011;53428;47.686;16.584;2023-05-07T14:10:09;9.05;;;6.78;;
66575;SDS011;53428;47.686;16.584;2023-05-07T14:15:10;10.43;;;6.18;;
66575;SDS011;53428;47.686;16.584;2023-05-07T14:20:09;7.90;;;6.32;;
66575;SDS011;53428;47.686;16.584;2023-05-07T14:25:09;7.43;;;5.32;;
66575;SDS011;53428;47.686;16.584;2023-05-07T14:30:08;10.57;;;5.68;;
66575;SDS011;53428;47.686;16.584;2023-05-07T14:35:08;8.68;;;6.13;;
66575;SDS011;53428;47.686;16.584;2023-05-07T14:40:08;7.65;;;5.55;;
66575;SDS011;53428;47.686;16.584;2023-05-07T14:45:08;10.50;;;6.28;;
66575;SDS011;53428;47.686;16.584;2023-05-07T14:50:08;5.78;;;4.97;;
66575;SDS011;53428;47.686;16.584;2023-05-07T14:55:08;7.85;;;6.00;;
66575;SDS011;53428;47.686;16.584;2023-05-07T15:00:07;7.53;;;4.53;;
66575;SDS011;53428;47.686;16.584;2023-05-07T15:05:08;9.77;;;4.82;;
66575;SDS011;53428;47.686;16.584;2023-05-07T15:10:08;4.50;;;4.03;;
66575;SDS011;53428;47.686;16.584;2023-05-07T15:15:08;5.82;;;4.50;;
66575;SDS011;53428;47.686;16.584;2023-05-07T15:20:07;7.78;;;3.67;;
66575;SDS011;53428;47.686;16.584;2023-05-07T15:25:07;5.57;;;3.53;;
66575;SDS011;53428;47.686;16.584;2023-05-07T15:30:07;6.38;;;3.65;;
66575;SDS011;53428;47.686;16.584;2023-05-07T15:40:08;6.75;;;4.18;;
66575;SDS011;53428;47.686;16.584;2023-05-07T15:45:07;5.53;;;4.07;;
66575;SDS011;53428;47.686;16.584;2023-05-07T15:50:08;4.20;;;3.22;;
66575;SDS011;53428;47.686;16.584;2023-05-07T15:55:08;7.63;;;4.15;;
66575;SDS011;53428;47.686;16.584;2023-05-07T16:00:07;4.45;;;3.38;;
66575;SDS011;53428;47.686;16.584;2023-05-07T16:05:09;4.03;;;3.40;;
66575;SDS011;53428;47.686;16.584;2023-05-07T16:10:09;7.32;;;3.20;;
66575;SDS011;53428;47.686;16.584;2023-05-07T16:15:09;12.05;;;3.38;;
66575;SDS011;53428;47.686;16.584;2023-05-07T16:20:09;5.18;;;2.90;;
66575;SDS011;53428;47.686;16.584;2023-05-07T16:25:10;3.60;;;2.50;;
66575;SDS011;53428;47.686;16.584;2023-05-07T16:30:12;3.85;;;3.17;;
66575;SDS011;53428;47.686;16.584;2023-05-07T16:35:13;2.90;;;2.60;;
66575;SDS011;53428;47.686;16.584;2023-05-07T16:40:12;2.80;;;2.28;;
66575;SDS011;53428;47.686;16.584;2023-05-07T16:50:36;3.25;;;2.55;;
66575;SDS011;53428;47.686;16.584;2023-05-07T16:55:36;4.78;;;4.10;;
66575;SDS011;53428;47.686;16.584;2023-05-07T17:00:38;5.57;;;3.03;;
66575;SDS011;53428;47.686;16.584;2023-05-07T17:05:38;4.45;;;3.00;;
66575;SDS011;53428;47.686;16.584;2023-05-07T17:10:37;4.38;;;3.03;;
66575;SDS011;53428;47.686;16.584;2023-05-07T17:15:36;3.67;;;3.00;;
66575;SDS011;53428;47.686;16.584;2023-05-07T17:20:36;4.20;;;3.40;;
66575;SDS011;53428;47.686;16.584;2023-05-07T17:25:37;3.13;;;2.67;;
66575;SDS011;53428;47.686;16.584;2023-05-07T17:30:37;10.77;;;3.10;;
66575;SDS011;53428;47.686;16.584;2023-05-07T17:35:36;3.67;;;2.95;;
66575;SDS011;53428;47.686;16.584;2023-05-07T17:40:35;3.60;;;3.30;;
66575;SDS011;53428;47.686;16.584;2023-05-07T17:45:35;4.47;;;3.50;;
66575;SDS011;53428;47.686;16.584;2023-05-07T17:50:34;4.13;;;3.53;;
66575;SDS011;53428;47.686;16.584;2023-05-07T17:55:33;5.75;;;4.13;;
66575;SDS011;53428;47.686;16.584;2023-05-07T18:00:38;5.95;;;4.15;;
66575;SDS011;53428;47.686;16.584;2023-05-07T18:05:37;5.38;;;3.38;;
66575;SDS011;53428;47.686;16.584;2023-05-07T18:10:37;4.20;;;3.78;;
66575;SDS011;53428;47.686;16.584;2023-05-07T18:15:37;6.32;;;4.47;;
66575;SDS011;53428;47.686;16.584;2023-05-07T18:20:37;4.70;;;3.72;;
66575;SDS011;53428;47.686;16.584;2023-05-07T18:25:36;6.28;;;4.35;;
66575;SDS011;53428;47.686;16.584;2023-05-07T18:30:35;6.90;;;4.70;;
66575;SDS011;53428;47.686;16.584;2023-05-07T18:35:35;5.45;;;4.57;;
66575;SDS011;53428;47.686;16.584;2023-05-07T18:40:35;6.95;;;4.88;;
66575;SDS011;53428;47.686;16.584;2023-05-07T18:45:34;8.35;;;4.88;;
66575;SDS011;53428;47.686;16.584;2023-05-07T18:50:34;5.47;;;4.38;;
66575;SDS011;53428;47.686;16.584;2023-05-07T18:55:33;8.18;;;4.60;;
66575;SDS011;53428;47.686;16.584;2023-05-07T19:00:32;6.45;;;4.97;;
66575;SDS011;53428;47.686;16.584;2023-05-07T19:05:31;6.03;;;4.90;;
66575;SDS011;53428;47.686;16.584;2023-05-07T19:10:31;9.38;;;5.35;;
66575;SDS011;53428;47.686;16.584;2023-05-07T19:15:30;6.38;;;5.78;;
66575;SDS011;53428;47.686;16.584;2023-05-07T19:20:29;6.93;;;5.82;;
66575;SDS011;53428;47.686;16.584;2023-05-07T19:25:29;6.43;;;5.18;;
66575;SDS011;53428;47.686;16.584;2023-05-07T19:30:28;7.10;;;5.25;;
66575;SDS011;53428;47.686;16.584;2023-05-07T19:35:27;8.32;;;5.75;;
66575;SDS011;53428;47.686;16.584;2023-05-07T19:40:27;11.45;;;7.18;;
66575;SDS011;53428;47.686;16.584;2023-05-07T19:45:26;8.35;;;6.28;;
66575;SDS011;53428;47.686;16.584;2023-05-07T19:50:25;12.98;;;7.70;;
66575;SDS011;53428;47.686;16.584;2023-05-07T19:55:24;10.48;;;7.70;;
66575;SDS011;53428;47.686;16.584;2023-05-07T20:00:23;10.70;;;8.38;;
66575;SDS011;53428;47.686;16.584;2023-05-07T20:05:29;15.02;;;9.77;;
66575;SDS011;53428;47.686;16.584;2023-05-07T20:10:28;15.50;;;9.88;;
66575;SDS011;53428;47.686;16.584;2023-05-07T20:15:28;17.73;;;11.18;;
66575;SDS011;53428;47.686;16.584;2023-05-07T20:20:27;19.15;;;9.82;;
66575;SDS011;53428;47.686;16.584;2023-05-07T20:25:26;16.75;;;10.65;;
66575;SDS011;53428;47.686;16.584;2023-05-07T20:30:25;24.23;;;12.13;;
66575;SDS011;53428;47.686;16.584;2023-05-07T20:35:25;18.80;;;11.60;;
66575;SDS011;53428;47.686;16.584;2023-05-07T20:40:25;18.23;;;10.73;;
66575;SDS011;53428;47.686;16.584;2023-05-07T20:45:24;18.42;;;11.98;;
66575;SDS011;53428;47.686;16.584;2023-05-07T20:50:24;19.95;;;11.93;;
66575;SDS011;53428;47.686;16.584;2023-05-07T20:55:24;20.27;;;12.93;;
66575;SDS011;53428;47.686;16.584;2023-05-07T21:00:23;21.35;;;12.77;;
66575;SDS011;53428;47.686;16.584;2023-05-07T21:05:22;19.60;;;11.18;;
66575;SDS011;53428;47.686;16.584;2023-05-07T21:10:22;28.83;;;13.55;;
66575;SDS011;53428;47.686;16.584;2023-05-07T21:15:21;22.20;;;12.50;;
66575;SDS011;53428;47.686;16.584;2023-05-07T21:20:20;24.90;;;13.05;;
66575;SDS011;53428;47.686;16.584;2023-05-07T21:25:19;22.02;;;12.73;;
66575;SDS011;53428;47.686;16.584;2023-05-07T21:30:18;23.00;;;13.88;;
66575;SDS011;53428;47.686;16.584;2023-05-07T21:35:17;24.35;;;14.55;;
66575;SDS011;53428;47.686;16.584;2023-05-07T21:40:17;29.80;;;14.23;;
66575;SDS011;53428;47.686;16.584;2023-05-07T21:45:16;21.13;;;12.73;;
66575;SDS011;53428;47.686;16.584;2023-05-07T21:50:15;22.63;;;14.00;;
66575;SDS011;53428;47.686;16.584;2023-05-07T21:55:16;23.75;;;13.98;;
66575;SDS011;53428;47.686;16.584;2023-05-07T22:00:15;24.20;;;14.23;;
66575;SDS011;53428;47.686;16.584;2023-05-07T22:05:14;19.88;;;12.60;;
66575;SDS011;53428;47.686;16.584;2023-05-07T22:10:14;27.67;;;13.95;;
66575;SDS011;53428;47.686;16.584;2023-05-07T22:15:19;22.38;;;13.90;;
66575;SDS011;53428;47.686;16.584;2023-05-07T22:20:19;19.67;;;12.77;;
66575;SDS011;53428;47.686;16.584;2023-05-07T22:25:18;25.73;;;14.07;;
66575;SDS011;53428;47.686;16.584;2023-05-07T22:30:18;20.77;;;13.23;;
66575;SDS011;53428;47.686;16.584;2023-05-07T22:35:17;22.98;;;13.02;;
66575;SDS011;53428;47.686;16.584;2023-05-07T22:40:17;24.23;;;14.57;;
66575;SDS011;53428;47.686;16.584;2023-05-07T22:45:16;29.30;;;15.13;;
66575;SDS011;53428;47.686;16.584;2023-05-07T22:50:15;24.83;;;15.52;;
66575;SDS011;53428;47.686;16.584;2023-05-07T22:55:15;25.73;;;15.00;;
66575;SDS011;53428;47.686;16.584;2023-05-07T23:00:14;22.48;;;13.48;;
66575;SDS011;53428;47.686;16.584;2023-05-07T23:05:14;26.33;;;15.00;;
66575;SDS011;53428;47.686;16.584;2023-05-07T23:10:13;28.92;;;14.18;;
66575;SDS011;53428;47.686;16.584;2023-05-07T23:15:13;21.35;;;13.10;;
66575;SDS011;53428;47.686;16.584;2023-05-07T23:20:15;21.02;;;13.02;;
66575;SDS011;53428;47.686;16.584;2023-05-07T23:25:15;24.38;;;12.70;;
66575;SDS011;53428;47.686;16.584;2023-05-07T23:30:16;23.00;;;12.93;;
66575;SDS011;53428;47.686;16.584;2023-05-07T23:35:15;20.88;;;12.68;;
66575;SDS011;53428;47.686;16.584;2023-05-07T23:40:15;16.05;;;10.82;;
66575;SDS011;53428;47.686;16.584;2023-05-07T23:45:15;17.42;;;11.95;;
66575;SDS011;53428;47.686;16.584;2023-05-07T23:50:14;18.33;;;11.52;;
66575;SDS011;53428;47.686;16.584;2023-05-07T23:55:13;18.10;;;11.25;;
